createdAt,value
2019-04-13T00:01:49.218Z,1.00
2019-04-13T00:04:29.184Z,1.00
2019-04-13T00:06:52.854Z,1.35
2019-04-13T00:09:22.180Z,0.78
2019-04-13T00:12:13.267Z,1.27
2019-04-13T00:14:42.645Z,0.98
2019-04-13T00:17:11.957Z,0.90
2019-04-13T00:19:41.297Z,0.72
2019-04-13T00:22:10.602Z,0.95
2019-04-13T00:24:39.941Z,0.72
2019-04-13T00:27:09.313Z,0.90
2019-04-13T00:29:38.931Z,1.27
2019-04-13T00:32:08.290Z,1.80
2019-04-13T00:34:41.622Z,0.98
2019-04-13T00:37:08.686Z,3.65
2019-04-13T00:39:37.999Z,1.70
2019-04-13T00:42:07.326Z,1.07
2019-04-13T00:44:36.726Z,1.30
2019-04-13T00:47:06.066Z,1.32
2019-04-13T00:49:35.443Z,1.20
2019-04-13T00:52:04.756Z,1.30
2019-04-13T00:54:34.082Z,1.12
2019-04-13T00:57:03.418Z,1.20
2019-04-13T00:59:32.742Z,1.30
2019-04-13T01:02:02.350Z,1.75
2019-04-13T01:04:31.663Z,2.30
2019-04-13T01:07:00.993Z,1.35
2019-04-13T01:09:30.398Z,1.05
2019-04-13T01:11:59.802Z,1.10
2019-04-13T01:14:29.231Z,1.35
2019-04-13T01:16:58.558Z,0.70
2019-04-13T01:19:27.963Z,0.70
2019-04-13T01:21:57.339Z,0.50
2019-04-13T01:24:26.651Z,0.60
2019-04-13T01:26:56.314Z,1.07
2019-04-13T01:29:25.708Z,0.62
2019-04-13T01:31:55.011Z,1.02
2019-04-13T01:34:24.322Z,0.80
2019-04-13T01:36:53.715Z,0.78
2019-04-13T01:39:23.100Z,1.52
2019-04-13T01:41:52.434Z,1.10
2019-04-13T01:44:21.815Z,0.98
2019-04-13T01:46:51.130Z,0.80
2019-04-13T01:49:20.479Z,0.70
2019-04-13T01:51:49.790Z,0.80
2019-04-13T01:54:19.099Z,0.90
2019-04-13T01:56:48.429Z,0.70
2019-04-13T01:59:17.842Z,1.50
2019-04-13T02:02:05.099Z,1.42
2019-04-13T02:04:41.150Z,1.10
2019-04-13T02:07:38.743Z,1.30
2019-04-13T02:10:21.328Z,0.90
2019-04-13T02:12:50.779Z,1.30
2019-04-13T02:15:20.098Z,1.30
2019-04-13T02:17:49.430Z,1.30
2019-04-13T02:20:18.921Z,1.35
2019-04-13T02:22:48.299Z,1.10
2019-04-13T02:25:17.618Z,0.75
2019-04-13T02:27:46.940Z,1.30
2019-04-13T02:30:16.421Z,0.80
2019-04-13T02:32:45.820Z,1.17
2019-04-13T02:35:15.467Z,1.47
2019-04-13T02:37:44.799Z,1.87
2019-04-13T02:40:14.196Z,1.72
2019-04-13T02:42:43.587Z,0.85
2019-04-13T02:45:13.829Z,1.00
2019-04-13T02:47:43.260Z,1.40
2019-04-13T02:50:12.647Z,1.10
2019-04-13T02:52:41.982Z,1.17
2019-04-13T02:55:11.606Z,0.60
2019-04-13T02:57:40.931Z,0.90
2019-04-13T03:00:12.064Z,1.00
2019-04-13T03:02:41.555Z,0.78
2019-04-13T03:05:11.072Z,0.65
2019-04-13T03:07:40.479Z,0.90
2019-04-13T03:10:13.321Z,0.65
2019-04-13T03:12:42.644Z,0.75
2019-04-13T03:15:12.765Z,1.00
2019-04-13T03:18:03.799Z,0.75
2019-04-13T03:20:33.983Z,0.90
2019-04-13T03:23:03.290Z,0.75
2019-04-13T03:25:32.735Z,1.00
2019-04-13T03:28:02.050Z,0.90
2019-04-13T03:30:34.581Z,1.05
2019-04-13T03:33:04.788Z,1.22
2019-04-13T03:35:34.178Z,1.00
2019-04-13T03:38:03.506Z,1.10
2019-04-13T03:40:32.845Z,1.05
2019-04-13T03:43:02.168Z,1.35
2019-04-13T03:45:31.538Z,0.90
2019-04-13T03:48:00.885Z,1.00
2019-04-13T03:50:30.200Z,0.88
2019-04-13T03:52:59.511Z,1.02
2019-04-13T03:55:28.843Z,0.93
2019-04-13T03:57:58.640Z,1.10
2019-04-13T04:00:27.975Z,0.90
2019-04-13T04:02:57.435Z,1.00
2019-04-13T04:05:26.747Z,0.80
2019-04-13T04:07:56.063Z,0.80
2019-04-13T04:10:25.373Z,0.85
2019-04-13T04:12:54.684Z,1.72
2019-04-13T04:15:24.040Z,0.82
2019-04-13T04:17:53.361Z,1.27
2019-04-13T04:20:22.726Z,0.75
2019-04-13T04:22:52.042Z,1.17
2019-04-13T04:25:21.351Z,1.20
2019-04-13T04:27:50.675Z,0.90
2019-04-13T04:30:20.062Z,0.70
2019-04-13T04:32:49.489Z,1.15
2019-04-13T04:35:18.795Z,0.72
2019-04-13T04:37:48.108Z,0.50
2019-04-13T04:40:17.443Z,1.00
2019-04-13T04:42:46.755Z,0.82
2019-04-13T04:45:16.106Z,1.40
2019-04-13T04:47:45.434Z,0.78
2019-04-13T04:50:14.740Z,0.82
2019-04-13T04:52:44.048Z,0.70
2019-04-13T04:55:13.366Z,1.10
2019-04-13T04:57:42.775Z,0.62
2019-04-13T05:00:12.358Z,0.98
2019-04-13T05:02:41.683Z,2.87
2019-04-13T05:05:11.212Z,0.70
2019-04-13T05:07:40.586Z,1.52
2019-04-13T05:10:11.470Z,1.40
2019-04-13T05:12:40.784Z,0.90
2019-04-13T05:15:10.471Z,1.10
2019-04-13T05:17:39.806Z,1.25
2019-04-13T05:20:09.426Z,1.00
2019-04-13T05:22:38.738Z,0.90
2019-04-13T05:25:08.462Z,1.30
2019-04-13T05:27:37.774Z,1.15
2019-04-13T05:30:07.331Z,0.70
2019-04-13T05:32:36.658Z,1.20
2019-04-13T05:35:06.153Z,0.88
2019-04-13T05:37:35.482Z,1.65
2019-04-13T05:40:05.231Z,1.57
2019-04-13T05:42:34.574Z,1.20
2019-04-13T05:45:04.420Z,1.50
2019-04-13T05:47:33.731Z,1.90
2019-04-13T05:50:03.059Z,1.77
2019-04-13T05:52:32.389Z,1.32
2019-04-13T05:55:01.776Z,0.78
2019-04-13T05:57:31.677Z,2.08
2019-04-13T06:00:02.169Z,0.90
2019-04-13T06:02:35.564Z,1.40
2019-04-13T06:05:02.534Z,0.90
2019-04-13T06:07:31.846Z,1.00
2019-04-13T06:10:01.164Z,0.88
2019-04-13T06:12:30.538Z,1.15
2019-04-13T06:15:02.586Z,1.02
2019-04-13T06:17:31.087Z,0.88
2019-04-13T06:20:00.531Z,1.10
2019-04-13T06:22:29.903Z,2.70
2019-04-13T06:24:59.219Z,2.20
2019-04-13T06:27:28.522Z,2.37
2019-04-13T06:30:00.857Z,1.67
2019-04-13T06:32:38.672Z,1.87
2019-04-13T06:35:11.889Z,1.27
2019-04-13T06:37:41.302Z,2.50
2019-04-13T06:40:10.819Z,2.75
2019-04-13T06:42:40.134Z,1.67
2019-04-13T06:45:13.075Z,2.02
2019-04-13T06:47:40.702Z,1.20
2019-04-13T06:50:10.113Z,1.82
2019-04-13T06:52:39.424Z,1.65
2019-04-13T06:55:08.934Z,1.10
2019-04-13T06:57:38.254Z,0.90
2019-04-13T07:00:11.777Z,0.80
2019-04-13T07:02:39.008Z,1.95
2019-04-13T07:05:08.433Z,1.17
2019-04-13T07:07:55.265Z,1.07
2019-04-13T07:10:55.338Z,1.80
2019-04-13T07:13:31.291Z,1.40
2019-04-13T07:16:05.286Z,2.15
2019-04-13T07:18:36.030Z,1.20
2019-04-13T07:21:05.660Z,1.95
2019-04-13T07:23:35.034Z,1.20
2019-04-13T07:26:06.386Z,1.60
2019-04-13T07:28:35.398Z,5.00
2019-04-13T07:31:04.720Z,1.60
2019-04-13T07:33:34.036Z,1.85
2019-04-13T07:36:03.383Z,1.80
2019-04-13T07:38:32.714Z,1.77
2019-04-13T07:41:02.030Z,2.10
2019-04-13T07:43:31.353Z,1.92
2019-04-13T07:46:28.610Z,1.20
2019-04-13T07:49:08.394Z,1.00
2019-04-13T07:51:51.707Z,1.00
2019-04-13T07:54:20.567Z,1.20
2019-04-13T07:56:49.902Z,1.17
2019-04-13T07:59:19.271Z,0.93
2019-04-13T08:01:56.479Z,1.37
2019-04-13T08:04:19.737Z,0.82
2019-04-13T08:06:49.103Z,1.22
2019-04-13T08:09:18.418Z,1.20
2019-04-13T08:11:47.728Z,1.30
2019-04-13T08:14:24.526Z,1.00
2019-04-13T08:16:54.386Z,1.20
2019-04-13T08:19:25.075Z,5.22
2019-04-13T08:21:54.388Z,2.60
2019-04-13T08:24:24.203Z,1.55
2019-04-13T08:26:53.550Z,2.35
2019-04-13T08:29:23.922Z,1.98
2019-04-13T08:31:53.563Z,2.02
2019-04-13T08:34:22.879Z,1.80
2019-04-13T08:36:52.186Z,2.20
2019-04-13T08:39:21.527Z,1.55
2019-04-13T08:41:51.705Z,2.55
2019-04-13T08:44:21.795Z,1.57
2019-04-13T08:46:51.109Z,1.30
2019-04-13T08:49:20.563Z,1.15
2019-04-13T08:51:50.003Z,1.25
2019-04-13T08:54:19.388Z,1.40
2019-04-13T08:56:48.713Z,1.05
2019-04-13T08:59:18.338Z,0.88
2019-04-13T09:01:47.792Z,1.75
2019-04-13T09:04:17.103Z,1.37
2019-04-13T09:06:46.548Z,2.42
2019-04-13T09:09:15.966Z,1.05
2019-04-13T09:11:45.422Z,1.15
2019-04-13T09:14:15.919Z,0.90
2019-04-13T09:16:45.540Z,1.12
2019-04-13T09:19:37.992Z,1.45
2019-04-13T09:22:11.711Z,1.25
2019-04-13T09:24:41.338Z,1.00
2019-04-13T09:27:10.658Z,1.37
2019-04-13T09:29:40.007Z,1.00
2019-04-13T09:32:09.341Z,1.25
2019-04-13T09:34:38.704Z,1.40
2019-04-13T09:37:08.082Z,1.30
2019-04-13T09:39:37.403Z,0.90
2019-04-13T09:42:10.305Z,1.15
2019-04-13T09:44:37.888Z,1.98
2019-04-13T09:47:11.384Z,1.40
2019-04-13T09:49:40.822Z,1.45
2019-04-13T09:52:10.132Z,4.03
2019-04-13T09:54:40.765Z,10.75
2019-04-13T09:57:10.591Z,10.70
2019-04-13T09:59:39.990Z,4.62
2019-04-13T10:02:09.299Z,1.75
2019-04-13T10:04:38.620Z,6.67
2019-04-13T10:07:09.101Z,5.80
2019-04-13T10:09:39.631Z,2.58
2019-04-13T10:12:26.883Z,3.72
2019-04-13T10:15:08.042Z,4.28
2019-04-13T10:17:58.983Z,2.58
2019-04-13T10:20:28.299Z,4.05
2019-04-13T10:22:57.614Z,2.62
2019-04-13T10:25:26.938Z,1.15
2019-04-13T10:27:56.227Z,1.40
2019-04-13T10:30:25.530Z,1.05
2019-04-13T10:32:54.846Z,0.80
2019-04-13T10:35:24.191Z,1.35
2019-04-13T10:37:54.836Z,1.00
2019-04-13T10:40:24.348Z,1.52
2019-04-13T10:42:53.667Z,1.87
2019-04-13T10:45:33.862Z,1.17
2019-04-13T10:48:25.996Z,1.10
2019-04-13T10:51:07.375Z,2.17
2019-04-13T10:53:36.684Z,0.85
2019-04-13T10:56:06.154Z,1.12
2019-04-13T10:58:35.527Z,1.30
2019-04-13T11:01:04.850Z,1.02
2019-04-13T11:03:34.185Z,1.90
2019-04-13T11:06:03.614Z,1.57
2019-04-13T11:08:33.022Z,1.20
2019-04-13T11:11:02.352Z,1.05
2019-04-13T11:13:31.735Z,1.07
2019-04-13T11:16:01.138Z,1.20
2019-04-13T11:18:30.786Z,0.88
2019-04-13T11:21:02.657Z,1.17
2019-04-13T11:23:36.084Z,3.10
2019-04-13T11:26:02.431Z,1.12
2019-04-13T11:28:31.759Z,3.25
2019-04-13T11:31:01.148Z,4.40
2019-04-13T11:33:30.463Z,1.70
2019-04-13T11:35:59.775Z,1.00
2019-04-13T11:38:29.130Z,1.37
2019-04-13T11:41:07.879Z,1.40
2019-04-13T11:43:58.865Z,1.50
2019-04-13T11:46:37.675Z,1.20
2019-04-13T11:49:09.770Z,0.95
2019-04-13T11:51:39.150Z,1.10
2019-04-13T11:54:08.668Z,1.52
2019-04-13T11:56:38.144Z,1.37
2019-04-13T11:59:07.778Z,0.90
2019-04-13T12:02:05.106Z,1.17
2019-04-13T12:05:02.230Z,1.22
2019-04-13T12:07:44.863Z,1.10
2019-04-13T12:10:33.026Z,1.20
2019-04-13T12:13:15.506Z,0.78
2019-04-13T12:16:09.966Z,1.00
2019-04-13T12:18:58.231Z,1.12
2019-04-13T12:21:41.026Z,1.00
2019-04-13T12:24:14.055Z,1.25
2019-04-13T12:26:45.890Z,1.60
2019-04-13T12:29:14.391Z,1.70
2019-04-13T12:31:43.712Z,2.55
2019-04-13T12:34:13.022Z,1.47
2019-04-13T12:36:42.315Z,1.10
2019-04-13T12:39:11.698Z,1.75
2019-04-13T12:41:54.327Z,1.50
2019-04-13T12:44:36.211Z,2.47
2019-04-13T12:46:54.691Z,1.35
2019-04-13T12:49:24.071Z,1.50
2019-04-13T12:51:53.381Z,1.62
2019-04-13T12:54:22.699Z,1.30
2019-04-13T12:56:52.109Z,1.60
2019-04-13T12:59:21.422Z,1.45
2019-04-13T13:02:18.614Z,2.30
2019-04-13T13:05:09.948Z,1.25
2019-04-13T13:07:39.476Z,1.42
2019-04-13T13:10:15.181Z,4.08
2019-04-13T13:12:40.178Z,6.05
2019-04-13T13:15:09.592Z,2.62
2019-04-13T13:17:39.494Z,1.80
2019-04-13T13:20:09.143Z,2.40
2019-04-13T13:22:38.470Z,1.62
2019-04-13T13:25:07.918Z,1.07
2019-04-13T13:27:40.705Z,1.57
2019-04-13T13:30:09.492Z,1.85
2019-04-13T13:32:38.906Z,1.50
2019-04-13T13:35:08.499Z,1.57
2019-04-13T13:37:38.514Z,1.20
2019-04-13T13:40:09.123Z,1.10
2019-04-13T13:42:39.239Z,1.30
2019-04-13T13:45:08.862Z,1.10
2019-04-13T13:47:38.238Z,1.10
2019-04-13T13:50:08.914Z,1.22
2019-04-13T13:52:38.760Z,0.93
2019-04-13T13:55:08.239Z,1.00
2019-04-13T13:57:39.132Z,1.12
2019-04-13T14:00:11.168Z,1.17
2019-04-13T14:02:40.494Z,1.95
2019-04-13T14:05:09.800Z,2.60
2019-04-13T14:07:39.119Z,2.33
2019-04-13T14:10:15.204Z,1.95
2019-04-13T14:12:44.970Z,1.57
2019-04-13T14:15:14.852Z,1.37
2019-04-13T14:17:44.221Z,3.33
2019-04-13T14:20:14.141Z,1.62
2019-04-13T14:22:43.534Z,1.90
2019-04-13T14:25:14.348Z,1.10
2019-04-13T14:27:43.426Z,1.17
2019-04-13T14:30:12.854Z,1.10
2019-04-13T14:32:42.306Z,1.20
2019-04-13T14:35:11.659Z,0.90
2019-04-13T14:37:41.236Z,1.05
2019-04-13T14:40:10.648Z,1.27
2019-04-13T14:42:39.978Z,1.10
2019-04-13T14:45:09.510Z,1.00
2019-04-13T14:47:38.895Z,1.25
2019-04-13T14:50:08.850Z,0.95
2019-04-13T14:52:38.375Z,1.10
2019-04-13T14:55:07.682Z,1.10
2019-04-13T14:57:38.908Z,1.42
2019-04-13T15:00:09.348Z,1.65
2019-04-13T15:02:38.785Z,1.10
2019-04-13T15:05:08.702Z,1.60
2019-04-13T15:07:37.403Z,2.15
2019-04-13T15:10:06.245Z,1.35
2019-04-13T15:12:37.012Z,1.00
2019-04-13T15:15:07.106Z,1.80
2019-04-13T15:17:49.277Z,0.95
2019-04-13T15:20:22.264Z,1.55
2019-04-13T15:22:49.781Z,1.15
2019-04-13T15:25:18.999Z,1.40
2019-04-13T15:27:52.586Z,1.27
2019-04-13T15:30:18.756Z,1.37
2019-04-13T15:32:47.561Z,1.90
2019-04-13T15:35:18.539Z,1.20
2019-04-13T15:37:49.382Z,1.35
2019-04-13T15:40:22.187Z,1.10
2019-04-13T15:42:56.116Z,1.50
2019-04-13T15:45:18.266Z,1.22
2019-04-13T15:47:47.249Z,1.00
2019-04-13T15:50:18.325Z,1.30
2019-04-13T15:52:46.782Z,1.57
2019-04-13T15:55:16.555Z,2.95
2019-04-13T15:57:45.370Z,1.80
2019-04-13T16:00:14.633Z,2.20
2019-04-13T16:02:43.450Z,3.20
2019-04-13T16:05:12.146Z,1.87
2019-04-13T16:07:40.936Z,2.75
2019-04-13T16:10:32.086Z,1.70
2019-04-13T16:13:03.133Z,1.40
2019-04-13T16:15:33.810Z,1.47
2019-04-13T16:18:02.602Z,2.25
2019-04-13T16:20:31.740Z,1.10
2019-04-13T16:23:00.818Z,1.47
2019-04-13T16:25:30.766Z,0.85
2019-04-13T16:28:15.653Z,1.00
2019-04-13T16:31:07.428Z,3.27
2019-04-13T16:33:54.233Z,3.65
2019-04-13T16:36:26.983Z,2.83
2019-04-13T16:39:03.653Z,4.12
2019-04-13T16:41:26.207Z,3.70
2019-04-13T16:44:03.879Z,1.80
2019-04-13T16:46:54.783Z,2.40
2019-04-13T16:49:34.125Z,1.85
2019-04-13T16:52:22.234Z,2.17
2019-04-13T16:55:05.004Z,1.82
2019-04-13T16:57:54.515Z,1.45
2019-04-13T17:00:42.166Z,1.67
2019-04-13T17:03:40.129Z,1.30
2019-04-13T17:06:09.290Z,1.17
2019-04-13T17:08:39.060Z,1.22
2019-04-13T17:11:09.019Z,1.47
2019-04-13T17:13:39.104Z,1.50
2019-04-13T17:16:09.078Z,1.22
2019-04-13T17:19:03.386Z,1.27
2019-04-13T17:21:50.167Z,1.47
2019-04-13T17:24:28.111Z,1.10
2019-04-13T17:27:19.627Z,1.27
2019-04-13T17:30:06.726Z,1.62
2019-04-13T17:32:41.346Z,1.12
2019-04-13T17:35:13.567Z,1.60
2019-04-13T17:37:42.749Z,2.08
2019-04-13T17:40:13.455Z,2.02
2019-04-13T17:43:07.447Z,1.90
2019-04-13T17:45:50.598Z,2.25
2019-04-13T17:48:41.925Z,5.00
2019-04-13T17:51:30.971Z,1.62
2019-04-13T17:54:08.275Z,2.50
2019-04-13T17:56:38.339Z,2.20
2019-04-13T17:59:27.785Z,1.70
2019-04-13T18:02:25.561Z,1.82
2019-04-13T18:05:13.610Z,2.35
2019-04-13T18:08:01.664Z,1.30
2019-04-13T18:10:51.078Z,1.40
2019-04-13T18:13:48.730Z,1.60
2019-04-13T18:16:42.322Z,1.75
2019-04-13T18:19:17.219Z,4.40
2019-04-13T18:21:47.025Z,7.33
2019-04-13T18:24:17.675Z,2.90
2019-04-13T18:26:47.911Z,3.90
2019-04-13T18:29:17.795Z,2.67
2019-04-13T18:31:46.505Z,3.35
2019-04-13T18:34:16.093Z,3.20
2019-04-13T18:36:44.854Z,2.47
2019-04-13T18:39:13.546Z,2.12
2019-04-13T18:41:43.683Z,2.27
2019-04-13T18:44:13.682Z,2.12
2019-04-13T18:46:42.765Z,3.45
2019-04-13T18:49:11.804Z,2.75
2019-04-13T18:51:40.566Z,3.12
2019-04-13T18:54:09.466Z,2.83
2019-04-13T18:56:38.248Z,2.25
2019-04-13T18:59:06.952Z,2.70
2019-04-13T19:01:36.557Z,2.33
2019-04-13T19:04:05.311Z,2.00
2019-04-13T19:06:34.099Z,3.05
2019-04-13T19:09:03.128Z,2.45
2019-04-13T19:11:31.810Z,2.20
2019-04-13T19:14:00.506Z,1.85
2019-04-13T19:16:29.195Z,1.95
2019-04-13T19:18:57.901Z,1.65
2019-04-13T19:21:26.602Z,2.30
2019-04-13T19:23:55.378Z,1.77
2019-04-13T19:26:24.072Z,1.95
2019-04-13T19:28:52.846Z,1.98
2019-04-13T19:31:21.550Z,2.10
2019-04-13T19:33:50.247Z,1.90
2019-04-13T19:36:18.939Z,1.82
2019-04-13T19:38:50.534Z,1.82
2019-04-13T19:41:18.174Z,3.33
2019-04-13T19:43:46.866Z,2.30
2019-04-13T19:46:15.566Z,1.50
2019-04-13T19:48:44.977Z,3.30
2019-04-13T19:51:14.368Z,1.72
2019-04-13T19:53:57.311Z,1.67
2019-04-13T19:56:26.914Z,1.72
2019-04-13T19:58:56.232Z,2.08
2019-04-13T20:01:28.258Z,1.45
2019-04-13T20:03:57.815Z,2.10
2019-04-13T20:06:27.190Z,1.82
2019-04-13T20:08:56.543Z,1.55
2019-04-13T20:11:25.857Z,3.35
2019-04-13T20:14:02.388Z,2.35
2019-04-13T20:16:27.364Z,2.55
2019-04-13T20:18:56.795Z,2.42
2019-04-13T20:21:26.106Z,2.20
2019-04-13T20:23:55.698Z,2.17
2019-04-13T20:26:25.193Z,1.85
2019-04-13T20:28:54.975Z,1.90
2019-04-13T20:31:24.769Z,1.17
2019-04-13T20:33:54.546Z,1.72
2019-04-13T20:36:25.748Z,1.80
2019-04-13T20:38:56.262Z,2.20
2019-04-13T20:41:39.953Z,2.12
2019-04-13T20:44:04.045Z,1.90
2019-04-13T20:46:27.939Z,1.37
2019-04-13T20:48:57.586Z,1.57
2019-04-13T20:51:27.890Z,2.05
2019-04-13T20:53:57.318Z,2.00
2019-04-13T20:56:27.234Z,1.98
2019-04-13T20:58:57.622Z,1.77
2019-04-13T21:01:27.964Z,1.87
2019-04-13T21:03:57.682Z,1.52
2019-04-13T21:06:28.313Z,1.77
2019-04-13T21:08:59.164Z,2.62
2019-04-13T21:11:28.663Z,3.30
2019-04-13T21:14:08.601Z,3.00
2019-04-13T21:16:29.965Z,1.55
2019-04-13T21:19:00.315Z,1.32
2019-04-13T21:21:30.263Z,1.55
2019-04-13T21:24:00.302Z,1.80
2019-04-13T21:26:30.384Z,1.45
2019-04-13T21:29:00.382Z,1.50
2019-04-13T21:31:30.348Z,1.20
2019-04-13T21:34:00.496Z,1.50
2019-04-13T21:36:30.604Z,1.20
2019-04-13T21:39:00.602Z,1.37
2019-04-13T21:41:30.311Z,3.17
2019-04-13T21:44:10.113Z,7.05
2019-04-13T21:46:30.747Z,4.28
2019-04-13T21:49:01.053Z,3.50
2019-04-13T21:51:42.298Z,2.50
2019-04-13T21:54:14.699Z,1.17
2019-04-13T21:56:45.113Z,0.93
2019-04-13T21:59:15.120Z,1.72
2019-04-13T22:01:58.399Z,1.42
2019-04-13T22:04:28.392Z,1.10
2019-04-13T22:06:58.314Z,1.00
2019-04-13T22:09:28.214Z,1.20
2019-04-13T22:11:58.347Z,0.85
2019-04-13T22:14:39.460Z,0.82
2019-04-13T22:16:58.846Z,0.93
2019-04-13T22:19:29.011Z,1.15
2019-04-13T22:21:59.029Z,0.75
2019-04-13T22:24:28.936Z,0.95
2019-04-13T22:26:58.722Z,0.90
2019-04-13T22:29:37.696Z,1.05
2019-04-13T22:32:32.130Z,0.98
2019-04-13T22:35:10.666Z,0.95
2019-04-13T22:37:40.694Z,0.98
2019-04-13T22:40:10.457Z,1.00
2019-04-13T22:42:40.460Z,0.90
2019-04-13T22:45:13.430Z,0.85
2019-04-13T22:47:42.883Z,1.10
2019-04-13T22:50:30.547Z,1.00
2019-04-13T22:53:17.104Z,0.85
2019-04-13T22:56:05.658Z,0.90
2019-04-13T22:58:35.628Z,1.30
2019-04-13T23:01:10.050Z,1.25
2019-04-13T23:03:39.639Z,2.12
2019-04-13T23:06:09.558Z,2.90
2019-04-13T23:08:40.095Z,2.40
2019-04-13T23:11:10.553Z,3.30
2019-04-13T23:13:40.650Z,1.87
2019-04-13T23:16:10.598Z,1.30
2019-04-13T23:18:40.693Z,1.20
2019-04-13T23:21:11.278Z,1.47
2019-04-13T23:23:41.928Z,3.20
2019-04-13T23:26:12.316Z,3.10
2019-04-13T23:28:42.464Z,1.12
2019-04-13T23:31:12.813Z,1.12
2019-04-13T23:33:43.154Z,1.00
2019-04-13T23:36:13.587Z,1.98
2019-04-13T23:38:42.943Z,1.75
2019-04-13T23:41:12.502Z,1.10
2019-04-13T23:43:42.977Z,1.60
2019-04-13T23:46:13.124Z,1.57
2019-04-13T23:48:42.488Z,1.40
2019-04-13T23:51:12.057Z,1.50
2019-04-13T23:53:42.295Z,1.40
2019-04-13T23:56:19.511Z,1.67
2019-04-13T23:59:03.242Z,1.17
